createdAt,value
2023-03-15T00:01:40.705Z,100447.41
2023-03-15T00:04:07.418Z,100452.75
2023-03-15T00:06:34.465Z,100459.94
2023-03-15T00:09:01.261Z,100468.16
2023-03-15T00:11:30.279Z,100469.25
2023-03-15T00:13:56.883Z,100467.53
2023-03-15T00:16:23.952Z,100471.16
2023-03-15T00:18:50.858Z,100476.66
2023-03-15T00:21:17.521Z,100480.38
2023-03-15T00:23:44.111Z,100482.31
2023-03-15T00:26:11.020Z,100484.25
2023-03-15T00:28:39.267Z,100490.53
2023-03-15T00:31:08.089Z,100495.88
2023-03-15T00:33:35.593Z,100505.59
2023-03-15T00:36:07.156Z,100503.88
2023-03-15T00:38:34.395Z,100505.94
2023-03-15T00:41:05.474Z,100506.06
2023-03-15T00:43:32.081Z,100515.03
2023-03-15T00:46:00.164Z,100516.84
2023-03-15T00:48:26.854Z,100524.75
2023-03-15T00:51:01.928Z,100523.91
2023-03-15T00:53:28.555Z,100528.47
2023-03-15T00:55:55.153Z,100530.53
2023-03-15T00:58:23.483Z,100534.06
2023-03-15T01:00:51.222Z,100535.84
2023-03-15T01:03:19.362Z,100534.06
2023-03-15T01:05:46.007Z,100539.50
2023-03-15T01:08:12.661Z,100545.78
2023-03-15T01:10:39.253Z,100544.28
2023-03-15T01:13:05.975Z,100549.63
2023-03-15T01:15:32.644Z,100547.19
2023-03-15T01:17:59.434Z,100554.25
2023-03-15T01:20:27.407Z,100564.16
2023-03-15T01:22:53.986Z,100561.50
2023-03-15T01:25:20.596Z,100564.16
2023-03-15T01:27:47.148Z,100565.88
2023-03-15T01:30:13.907Z,100574.84
2023-03-15T01:32:40.533Z,100577.50
2023-03-15T01:35:08.077Z,100571.44
2023-03-15T01:37:36.050Z,100575.06
2023-03-15T01:40:02.777Z,100579.56
2023-03-15T01:42:29.525Z,100576.97
2023-03-15T01:44:57.900Z,100575.38
2023-03-15T01:47:24.650Z,100587.03
2023-03-15T01:49:56.696Z,100588.09
2023-03-15T01:52:26.247Z,100590.00
2023-03-15T01:54:57.771Z,100594.50
2023-03-15T01:57:29.385Z,100595.56
2023-03-15T02:00:00.512Z,100594.72
2023-03-15T02:02:28.020Z,100598.47
2023-03-15T02:04:59.961Z,100599.41
2023-03-15T02:07:29.591Z,100592.38
2023-03-15T02:10:01.805Z,100600.50
2023-03-15T02:12:31.887Z,100597.91
2023-03-15T02:15:00.496Z,100596.19
2023-03-15T02:17:33.289Z,100600.81
2023-03-15T02:20:10.156Z,100605.38
2023-03-15T02:22:45.439Z,100616.91
2023-03-15T02:25:20.983Z,100617.00
2023-03-15T02:27:49.195Z,100612.63
2023-03-15T02:30:15.886Z,100619.81
2023-03-15T02:32:42.743Z,100623.41
2023-03-15T02:35:10.090Z,100627.91
2023-03-15T02:37:36.853Z,100629.72
2023-03-15T02:40:16.525Z,100629.72
2023-03-15T02:42:43.387Z,100635.13
2023-03-15T02:45:11.963Z,100630.97
2023-03-15T02:47:39.496Z,100646.13
2023-03-15T02:50:06.713Z,100652.53
2023-03-15T02:52:33.470Z,100645.38
2023-03-15T02:55:00.081Z,100652.63
2023-03-15T02:57:26.841Z,100658.09
2023-03-15T02:59:53.457Z,100654.66
2023-03-15T03:02:21.600Z,100658.28
2023-03-15T03:04:48.277Z,100659.13
2023-03-15T03:07:14.992Z,100661.78
2023-03-15T03:09:41.594Z,100664.38
2023-03-15T03:12:08.266Z,100674.09
2023-03-15T03:14:34.886Z,100674.81
2023-03-15T03:17:01.517Z,100679.22
2023-03-15T03:19:29.548Z,100680.06
2023-03-15T03:21:56.179Z,100679.00
2023-03-15T03:24:22.794Z,100680.72
2023-03-15T03:26:49.397Z,100688.63
2023-03-15T03:29:15.964Z,100694.06
2023-03-15T03:31:43.106Z,100691.38
2023-03-15T03:34:10.146Z,100695.00
2023-03-15T03:36:38.142Z,100696.72
2023-03-15T03:39:04.712Z,100698.53
2023-03-15T03:41:31.390Z,100699.47
2023-03-15T03:43:57.971Z,100710.16
2023-03-15T03:46:24.740Z,100712.09
2023-03-15T03:48:51.391Z,100720.19
2023-03-15T03:51:18.012Z,100715.81
2023-03-15T03:53:45.957Z,100714.97
2023-03-15T03:56:12.769Z,100718.66
2023-03-15T03:58:39.323Z,100724.00
2023-03-15T04:01:06.138Z,100720.59
2023-03-15T04:03:32.740Z,100725.09
2023-03-15T04:05:59.937Z,100726.88
2023-03-15T04:08:26.982Z,100723.44
2023-03-15T04:10:57.034Z,100732.53
2023-03-15T04:13:24.542Z,100735.41
2023-03-15T04:15:51.466Z,100732.06
2023-03-15T04:18:18.542Z,100734.84
2023-03-15T04:20:47.488Z,100751.06
2023-03-15T04:23:14.092Z,100750.28
2023-03-15T04:25:40.748Z,100759.34
2023-03-15T04:28:09.675Z,100758.56
2023-03-15T04:30:37.398Z,100761.44
2023-03-15T04:33:04.799Z,100762.47
2023-03-15T04:35:33.650Z,100761.81
2023-03-15T04:38:00.590Z,100765.56
2023-03-15T04:40:27.936Z,100768.41
2023-03-15T04:42:54.724Z,100771.28
2023-03-15T04:45:22.832Z,100772.34
2023-03-15T04:47:49.834Z,100782.31
2023-03-15T04:50:17.590Z,100777.09
2023-03-15T04:52:44.176Z,100781.78
2023-03-15T04:55:11.113Z,100793.47
2023-03-15T04:57:38.173Z,100795.38
2023-03-15T05:00:06.731Z,100802.59
2023-03-15T05:02:34.800Z,100810.59
2023-03-15T05:05:01.535Z,100813.25
2023-03-15T05:07:28.194Z,100813.25
2023-03-15T05:09:54.789Z,100824.69
2023-03-15T05:12:21.434Z,100822.03
2023-03-15T05:14:48.070Z,100822.78
2023-03-15T05:17:14.722Z,100818.22
2023-03-15T05:19:42.707Z,100819.94
2023-03-15T05:22:10.006Z,100834.00
2023-03-15T05:24:36.853Z,100838.28
2023-03-15T05:27:03.803Z,100843.53
2023-03-15T05:29:30.670Z,100838.97
2023-03-15T05:31:57.286Z,100845.06
2023-03-15T05:34:23.993Z,100849.34
2023-03-15T05:36:51.992Z,100848.22
2023-03-15T05:39:18.682Z,100859.53
2023-03-15T05:41:45.453Z,100860.19
2023-03-15T05:44:12.298Z,100859.13
2023-03-15T05:46:38.889Z,100864.38
2023-03-15T05:49:05.568Z,100874.00
2023-03-15T05:51:32.161Z,100882.66
2023-03-15T05:54:00.101Z,100882.47
2023-03-15T05:56:26.894Z,100889.31
2023-03-15T05:58:53.478Z,100892.56
2023-03-15T06:01:20.143Z,100894.94
2023-03-15T06:03:46.947Z,100898.19
2023-03-15T06:06:13.648Z,100903.31
2023-03-15T06:08:40.253Z,100913.78
2023-03-15T06:11:08.372Z,100908.34
2023-03-15T06:13:34.942Z,100919.03
2023-03-15T06:16:01.641Z,100914.63
2023-03-15T06:18:28.316Z,100922.56
2023-03-15T06:20:54.950Z,100920.63
2023-03-15T06:23:22.667Z,100931.31
2023-03-15T06:25:49.314Z,100940.81
2023-03-15T06:28:17.393Z,100937.13
2023-03-15T06:30:44.060Z,100934.38
2023-03-15T06:33:10.818Z,100937.69
2023-03-15T06:35:37.535Z,100941.97
2023-03-15T06:38:04.236Z,100950.63
2023-03-15T06:40:31.323Z,100961.13
2023-03-15T06:42:57.919Z,100957.97
2023-03-15T06:45:25.918Z,100957.75
2023-03-15T06:47:52.731Z,100966.34
2023-03-15T06:50:19.416Z,100966.91
2023-03-15T06:52:46.043Z,100970.16
2023-03-15T06:55:12.724Z,100973.38
2023-03-15T06:57:39.367Z,100978.44
2023-03-15T07:00:07.230Z,100978.22
2023-03-15T07:02:35.270Z,100976.97
2023-03-15T07:05:01.932Z,100980.19
2023-03-15T07:07:28.534Z,100986.84
2023-03-15T07:09:55.331Z,100987.28
2023-03-15T07:12:21.920Z,100993.09
2023-03-15T07:14:48.630Z,100992.91
2023-03-15T07:17:15.426Z,100998.03
2023-03-15T07:19:55.463Z,100990.78
2023-03-15T07:22:23.084Z,101002.97
2023-03-15T07:24:49.757Z,101000.88
2023-03-15T07:27:19.090Z,101002.38
2023-03-15T07:29:46.052Z,101000.34
2023-03-15T07:32:12.731Z,101005.38
2023-03-15T07:34:39.549Z,101007.75
2023-03-15T07:37:07.717Z,101003.81
2023-03-15T07:39:34.354Z,101008.66
2023-03-15T07:42:00.944Z,101019.69
2023-03-15T07:44:27.592Z,101016.47
2023-03-15T07:46:54.209Z,101017.03
2023-03-15T07:49:20.834Z,101019.47
2023-03-15T07:51:47.427Z,101012.13
2023-03-15T07:54:15.595Z,101019.06
2023-03-15T07:56:42.212Z,101028.59
2023-03-15T07:59:08.791Z,101030.09
2023-03-15T08:01:35.469Z,101032.47
2023-03-15T08:04:03.557Z,101041.91
2023-03-15T08:06:30.156Z,101039.75
2023-03-15T08:08:56.821Z,101042.97
2023-03-15T08:11:24.952Z,101046.16
2023-03-15T08:13:51.515Z,101048.66
2023-03-15T08:16:18.187Z,101049.19
2023-03-15T08:18:44.822Z,101055.06
2023-03-15T08:21:11.439Z,101052.84
2023-03-15T08:23:37.986Z,101051.56
2023-03-15T08:26:04.938Z,101064.41
2023-03-15T08:28:32.917Z,101058.91
2023-03-15T08:30:59.528Z,101064.16
2023-03-15T08:33:26.217Z,101068.66
2023-03-15T08:35:53.469Z,101074.25
2023-03-15T08:38:20.194Z,101081.75
2023-03-15T08:40:46.875Z,101086.38
2023-03-15T08:43:13.629Z,101093.63
2023-03-15T08:45:59.754Z,101095.59
2023-03-15T08:48:27.584Z,101102.09
2023-03-15T08:50:54.230Z,101108.44
2023-03-15T08:53:20.841Z,101108.53
2023-03-15T08:55:48.214Z,101114.44
2023-03-15T08:58:15.252Z,101111.44
2023-03-15T09:00:43.260Z,101115.50
2023-03-15T09:03:09.825Z,101115.16
2023-03-15T09:05:37.014Z,101123.75
2023-03-15T09:08:03.814Z,101124.28
2023-03-15T09:10:30.403Z,101120.31
2023-03-15T09:12:57.057Z,101128.03
2023-03-15T09:15:23.750Z,101141.75
2023-03-15T09:17:52.474Z,101143.34
2023-03-15T09:20:20.600Z,101144.75
2023-03-15T09:22:51.214Z,101147.97
2023-03-15T09:25:18.151Z,101149.34
2023-03-15T09:27:45.110Z,101158.75
2023-03-15T09:30:15.326Z,101157.56
2023-03-15T09:32:44.316Z,101160.16
2023-03-15T09:35:19.156Z,101162.50
2023-03-15T09:37:46.474Z,101170.22
2023-03-15T09:40:18.618Z,101173.53
2023-03-15T09:42:57.975Z,101180.41
2023-03-15T09:45:31.338Z,101181.16
2023-03-15T09:48:02.898Z,101184.25
2023-03-15T09:50:34.805Z,101183.25
2023-03-15T09:53:05.110Z,101180.19
2023-03-15T09:55:31.858Z,101183.56
2023-03-15T09:58:01.021Z,101184.88
2023-03-15T10:00:37.652Z,101187.06
2023-03-15T10:03:05.026Z,101191.31
2023-03-15T10:05:38.945Z,101196.41
2023-03-15T10:08:10.349Z,101200.22
2023-03-15T10:10:40.845Z,101199.97
2023-03-15T10:13:36.066Z,101194.13
2023-03-15T10:16:20.308Z,101195.84
2023-03-15T10:19:01.016Z,101193.69
2023-03-15T10:21:40.006Z,101198.06
2023-03-15T10:24:23.893Z,101207.97
2023-03-15T10:26:52.764Z,101205.16
2023-03-15T10:29:25.417Z,101203.19
2023-03-15T10:31:54.332Z,101200.38
2023-03-15T10:34:21.538Z,101205.63
2023-03-15T10:36:51.316Z,101201.72
2023-03-15T10:39:18.281Z,101210.28
2023-03-15T10:41:46.815Z,101208.56
2023-03-15T10:44:17.057Z,101210.03
2023-03-15T10:47:02.991Z,101221.19
2023-03-15T10:49:35.306Z,101210.78
2023-03-15T10:52:04.951Z,101212.00
2023-03-15T10:54:33.297Z,101208.03
2023-03-15T10:57:03.133Z,101213.63
2023-03-15T10:59:31.981Z,101212.38
2023-03-15T11:02:20.154Z,101204.72
2023-03-15T11:04:50.259Z,101212.53
2023-03-15T11:07:18.871Z,101216.19
2023-03-15T11:09:52.496Z,101209.81
2023-03-15T11:12:23.419Z,101214.84
2023-03-15T11:14:55.904Z,101214.34
2023-03-15T11:17:24.651Z,101222.47
2023-03-15T11:19:55.878Z,101209.16
2023-03-15T11:22:25.291Z,101208.59
2023-03-15T11:24:52.940Z,101208.84
2023-03-15T11:27:22.989Z,101207.38
2023-03-15T11:29:54.339Z,101216.28
2023-03-15T11:32:25.046Z,101211.75
2023-03-15T11:34:58.747Z,101211.84
2023-03-15T11:37:32.634Z,101213.94
2023-03-15T11:40:11.880Z,101214.16
2023-03-15T11:42:46.744Z,101221.88
2023-03-15T11:45:21.193Z,101222.66
2023-03-15T11:47:53.023Z,101223.94
2023-03-15T11:50:20.145Z,101221.06
2023-03-15T11:52:50.856Z,101215.25
2023-03-15T11:55:20.500Z,101225.97
2023-03-15T11:57:48.714Z,101220.47
2023-03-15T12:00:44.008Z,101214.31
2023-03-15T12:03:36.160Z,101201.72
2023-03-15T12:06:33.244Z,101197.97
2023-03-15T12:09:01.465Z,101206.38
2023-03-15T12:11:39.974Z,101204.78
2023-03-15T12:14:25.340Z,101203.09
2023-03-15T12:16:56.762Z,101204.22
2023-03-15T12:19:26.744Z,101204.94
2023-03-15T12:21:56.399Z,101197.69
2023-03-15T12:24:26.882Z,101199.97
2023-03-15T12:27:01.679Z,101199.53
2023-03-15T12:29:30.209Z,101216.59
2023-03-15T12:32:04.855Z,101206.22
2023-03-15T12:34:53.107Z,101200.91
2023-03-15T12:37:23.216Z,101199.06
2023-03-15T12:39:58.814Z,101206.88
2023-03-15T12:43:00.824Z,101200.34
2023-03-15T12:45:51.325Z,101196.88
2023-03-15T12:48:25.689Z,101206.41
2023-03-15T12:51:10.999Z,101214.09
2023-03-15T12:53:50.456Z,101195.59
2023-03-15T12:56:44.600Z,101202.97
2023-03-15T12:59:20.219Z,101208.50
2023-03-15T13:01:47.029Z,101210.91
2023-03-15T13:04:14.655Z,101197.66
2023-03-15T13:06:57.923Z,101202.75
2023-03-15T13:09:53.263Z,101209.38
2023-03-15T13:12:29.135Z,101218.00
2023-03-15T13:15:03.454Z,101221.16
2023-03-15T13:17:39.881Z,101236.53
2023-03-15T13:20:40.422Z,101253.53
2023-03-15T13:23:15.061Z,101265.09
2023-03-15T13:25:52.624Z,101287.72
2023-03-15T13:28:23.225Z,101267.13
2023-03-15T13:30:52.473Z,101268.19
2023-03-15T13:33:22.738Z,101265.88
2023-03-15T13:35:56.279Z,101275.91
2023-03-15T13:38:30.154Z,101278.50
2023-03-15T13:40:58.430Z,101275.00
2023-03-15T13:43:30.597Z,101274.88
2023-03-15T13:45:58.588Z,101267.81
2023-03-15T13:48:29.154Z,101276.66
2023-03-15T13:51:01.100Z,101269.84
2023-03-15T13:53:48.249Z,101271.88
2023-03-15T13:56:17.690Z,101276.56
2023-03-15T13:58:46.276Z,101285.19
2023-03-15T14:01:14.471Z,101275.81
2023-03-15T14:03:43.160Z,101274.94
2023-03-15T14:06:13.690Z,101275.06
2023-03-15T14:08:40.921Z,101273.97
2023-03-15T14:11:10.619Z,101274.38
2023-03-15T14:13:50.569Z,101273.56
2023-03-15T14:16:29.414Z,101268.97
2023-03-15T14:18:56.051Z,101268.97
2023-03-15T14:21:31.546Z,101264.84
2023-03-15T14:24:05.780Z,101256.75
2023-03-15T14:26:32.493Z,101270.97
2023-03-15T14:29:07.209Z,101274.78
2023-03-15T14:31:39.637Z,101261.56
2023-03-15T14:34:09.366Z,101271.78
2023-03-15T14:36:42.422Z,101270.88
2023-03-15T14:39:17.868Z,101275.91
2023-03-15T14:41:45.248Z,101269.56
2023-03-15T14:44:13.136Z,101269.75
2023-03-15T14:46:39.782Z,101275.34
2023-03-15T14:49:06.515Z,101275.16
2023-03-15T14:51:33.160Z,101271.66
2023-03-15T14:54:00.692Z,101279.66
2023-03-15T14:56:27.349Z,101281.03
2023-03-15T14:58:53.970Z,101281.16
2023-03-15T15:01:25.287Z,101284.56
2023-03-15T15:03:55.258Z,101294.03
2023-03-15T15:06:21.955Z,101289.00
2023-03-15T15:08:52.804Z,101283.88
2023-03-15T15:11:19.521Z,101292.84
2023-03-15T15:13:46.162Z,101293.09
2023-03-15T15:16:12.839Z,101288.75
2023-03-15T15:18:40.736Z,101296.38
2023-03-15T15:21:13.619Z,101308.38
2023-03-15T15:23:56.857Z,101315.25
2023-03-15T15:26:26.546Z,101312.44
2023-03-15T15:28:53.375Z,101321.88
2023-03-15T15:31:21.889Z,101317.88
2023-03-15T15:33:50.595Z,101323.47
2023-03-15T15:36:23.350Z,101330.22
2023-03-15T15:38:50.046Z,101329.13
2023-03-15T15:41:22.694Z,101338.53
2023-03-15T15:43:49.347Z,101382.00
2023-03-15T15:46:16.086Z,101402.88
2023-03-15T15:48:42.840Z,101425.47
2023-03-15T15:51:26.621Z,101431.75
2023-03-15T15:53:55.109Z,101432.88
2023-03-15T15:56:28.178Z,101426.50
2023-03-15T15:58:54.916Z,101417.69
2023-03-15T16:01:21.642Z,101412.72
2023-03-15T16:03:48.494Z,101407.78
2023-03-15T16:06:19.829Z,101396.63
2023-03-15T16:08:49.149Z,101393.53
2023-03-15T16:11:16.481Z,101397.50
2023-03-15T16:13:44.471Z,101396.63
2023-03-15T16:16:15.522Z,101394.81
2023-03-15T16:18:43.350Z,101398.13
2023-03-15T16:21:15.339Z,101405.13
2023-03-15T16:23:44.897Z,101408.69
2023-03-15T16:26:16.284Z,101406.72
2023-03-15T16:28:43.658Z,101419.19
2023-03-15T16:31:10.886Z,101426.28
2023-03-15T16:33:37.855Z,101420.91
2023-03-15T16:36:05.111Z,101424.78
2023-03-15T16:38:34.144Z,101427.34
2023-03-15T16:41:02.980Z,101431.53
2023-03-15T16:43:30.313Z,101434.34
2023-03-15T16:45:57.132Z,101429.31
2023-03-15T16:48:23.965Z,101445.75
2023-03-15T16:50:50.779Z,101444.44
2023-03-15T16:53:17.829Z,101454.63
2023-03-15T16:55:45.061Z,101461.16
2023-03-15T16:58:17.527Z,101465.00
2023-03-15T17:00:45.252Z,101468.44
2023-03-15T17:03:12.256Z,101472.63
2023-03-15T17:05:40.924Z,101478.53
2023-03-15T17:08:11.434Z,101471.94
2023-03-15T17:10:40.126Z,101481.13
2023-03-15T17:13:07.109Z,101482.31
2023-03-15T17:15:35.234Z,101484.47
2023-03-15T17:18:02.229Z,101489.06
2023-03-15T17:20:29.711Z,101491.19
2023-03-15T17:22:58.771Z,101498.56
2023-03-15T17:25:25.918Z,101506.94
2023-03-15T17:27:52.848Z,101512.38
2023-03-15T17:30:22.392Z,101518.03
2023-03-15T17:32:50.982Z,101512.16
2023-03-15T17:35:19.965Z,101521.44
2023-03-15T17:37:47.420Z,101520.00
2023-03-15T17:40:21.276Z,101525.78
2023-03-15T17:42:48.305Z,101523.41
2023-03-15T17:45:17.156Z,101522.91
2023-03-15T17:47:44.229Z,101527.63
2023-03-15T17:50:19.704Z,101538.63
2023-03-15T17:52:49.497Z,101542.38
2023-03-15T17:55:18.762Z,101543.59
2023-03-15T17:57:53.974Z,101554.69
2023-03-15T18:00:22.635Z,101559.47
2023-03-15T18:02:55.736Z,101564.28
2023-03-15T18:05:26.837Z,101555.75
2023-03-15T18:07:58.904Z,101555.09
2023-03-15T18:10:31.438Z,101564.34
2023-03-15T18:12:58.421Z,101580.63
2023-03-15T18:15:25.105Z,101580.88
2023-03-15T18:17:51.804Z,101583.75
2023-03-15T18:20:19.089Z,101584.13
2023-03-15T18:22:48.463Z,101585.44
2023-03-15T18:25:19.105Z,101578.56
2023-03-15T18:27:46.053Z,101581.50
2023-03-15T18:30:15.419Z,101582.53
2023-03-15T18:32:42.151Z,101577.38
2023-03-15T18:35:15.592Z,101583.75
2023-03-15T18:37:43.725Z,101588.44
2023-03-15T18:40:16.688Z,101589.50
2023-03-15T18:42:44.160Z,101603.06
2023-03-15T18:45:17.165Z,101599.66
2023-03-15T18:47:44.262Z,101599.88
2023-03-15T18:50:12.623Z,101603.59
2023-03-15T18:52:39.817Z,101601.06
2023-03-15T18:55:07.947Z,101606.63
2023-03-15T18:57:36.495Z,101615.69
2023-03-15T19:00:04.955Z,101617.56
2023-03-15T19:02:31.687Z,101609.72
2023-03-15T19:04:58.503Z,101610.75
2023-03-15T19:07:25.323Z,101611.81
2023-03-15T19:09:52.012Z,101617.22
2023-03-15T19:12:18.638Z,101619.03
2023-03-15T19:14:46.821Z,101634.34
2023-03-15T19:17:13.660Z,101627.44
2023-03-15T19:19:40.517Z,101632.09
2023-03-15T19:22:07.262Z,101626.03
2023-03-15T19:24:34.150Z,101633.47
2023-03-15T19:27:00.818Z,101638.03
2023-03-15T19:29:27.574Z,101631.06
2023-03-15T19:31:55.660Z,101637.44
2023-03-15T19:34:22.433Z,101633.13
2023-03-15T19:36:49.178Z,101635.94
2023-03-15T19:39:15.920Z,101629.84
2023-03-15T19:41:42.600Z,101637.06
2023-03-15T19:44:09.483Z,101643.47
2023-03-15T19:46:36.266Z,101646.31
2023-03-15T19:49:04.517Z,101649.13
2023-03-15T19:51:31.311Z,101652.78
2023-03-15T19:53:58.013Z,101648.53
2023-03-15T19:56:24.811Z,101649.56
2023-03-15T19:58:51.756Z,101654.03
2023-03-15T20:01:18.575Z,101659.47
2023-03-15T20:03:45.300Z,101660.50
2023-03-15T20:06:13.774Z,101673.09
2023-03-15T20:08:40.995Z,101677.72
2023-03-15T20:11:08.618Z,101670.72
2023-03-15T20:13:36.204Z,101678.91
2023-03-15T20:16:03.656Z,101681.66
2023-03-15T20:18:30.741Z,101687.06
2023-03-15T20:20:57.816Z,101682.84
2023-03-15T20:23:26.057Z,101685.63
2023-03-15T20:25:52.993Z,101684.88
2023-03-15T20:28:19.663Z,101685.94
2023-03-15T20:30:46.328Z,101694.97
2023-03-15T20:33:13.412Z,101698.66
2023-03-15T20:35:40.316Z,101699.69
2023-03-15T20:38:07.135Z,101697.97
2023-03-15T20:40:38.937Z,101696.41
2023-03-15T20:43:06.078Z,101697.44
2023-03-15T20:45:33.122Z,101700.34
2023-03-15T20:47:59.942Z,101705.81
2023-03-15T20:50:26.704Z,101711.31
2023-03-15T20:52:53.420Z,101715.03
2023-03-15T20:55:20.217Z,101719.63
2023-03-15T20:57:48.375Z,101712.66
2023-03-15T21:00:15.829Z,101723.50
2023-03-15T21:02:42.542Z,101721.81
2023-03-15T21:05:10.353Z,101727.31
2023-03-15T21:07:36.963Z,101723.09
2023-03-15T21:10:04.149Z,101727.72
2023-03-15T21:12:30.757Z,101729.59
2023-03-15T21:14:58.860Z,101729.75
2023-03-15T21:17:25.408Z,101729.91
2023-03-15T21:19:52.099Z,101730.03
2023-03-15T21:22:18.699Z,101725.72
2023-03-15T21:24:55.133Z,101728.47
2023-03-15T21:27:22.692Z,101721.50
2023-03-15T21:29:49.336Z,101733.09
2023-03-15T21:32:17.300Z,101726.94
2023-03-15T21:34:43.934Z,101731.50
2023-03-15T21:37:10.524Z,101736.03
2023-03-15T21:39:37.109Z,101735.28
2023-03-15T21:42:03.821Z,101741.53
2023-03-15T21:44:30.551Z,101743.44
2023-03-15T21:46:57.105Z,101742.63
2023-03-15T21:49:25.110Z,101739.97
2023-03-15T21:51:51.760Z,101749.75
2023-03-15T21:54:18.688Z,101748.13
2023-03-15T21:56:45.276Z,101753.44
2023-03-15T21:59:11.856Z,101750.84
2023-03-15T22:01:38.576Z,101755.31
2023-03-15T22:04:05.498Z,101762.44
2023-03-15T22:06:33.918Z,101754.44
2023-03-15T22:09:00.596Z,101770.44
2023-03-15T22:11:27.274Z,101768.75
2023-03-15T22:13:54.012Z,101767.88
2023-03-15T22:16:20.722Z,101771.47
2023-03-15T22:18:47.313Z,101771.53
2023-03-15T22:21:13.968Z,101773.28
2023-03-15T22:23:42.108Z,101775.94
2023-03-15T22:26:08.762Z,101779.53
2023-03-15T22:28:35.332Z,101776.88
2023-03-15T22:31:02.026Z,101784.97
2023-03-15T22:33:28.783Z,101784.09
2023-03-15T22:35:57.175Z,101783.22
2023-03-15T22:38:24.819Z,101784.16
2023-03-15T22:41:00.259Z,101787.75
2023-03-15T22:43:26.957Z,101789.56
2023-03-15T22:45:53.586Z,101788.63
2023-03-15T22:48:20.156Z,101800.31
2023-03-15T22:50:46.915Z,101798.56
2023-03-15T22:53:13.484Z,101794.25
2023-03-15T22:55:40.051Z,101798.72
2023-03-15T22:58:08.024Z,101803.19
2023-03-15T23:00:34.610Z,101804.19
2023-03-15T23:03:01.206Z,101800.72
2023-03-15T23:05:27.891Z,101809.72
2023-03-15T23:07:54.475Z,101812.47
2023-03-15T23:10:21.134Z,101806.34
2023-03-15T23:12:47.815Z,101810.88
2023-03-15T23:15:15.889Z,101815.41
2023-03-15T23:17:42.456Z,101812.91
2023-03-15T23:20:10.172Z,101817.50
2023-03-15T23:22:36.868Z,101810.50
2023-03-15T23:25:04.056Z,101817.72
2023-03-15T23:27:30.633Z,101818.69
2023-03-15T23:29:57.233Z,101816.13
2023-03-15T23:32:25.423Z,101819.88
2023-03-15T23:34:52.218Z,101820.78
2023-03-15T23:37:19.441Z,101820.84
2023-03-15T23:39:46.279Z,101819.97
2023-03-15T23:42:13.089Z,101825.41
2023-03-15T23:44:40.473Z,101826.31
2023-03-15T23:47:07.513Z,101829.97
2023-03-15T23:49:35.599Z,101840.72
2023-03-15T23:52:03.778Z,101839.03
2023-03-15T23:54:30.419Z,101832.06
2023-03-15T23:56:56.944Z,101833.91
2023-03-15T23:59:23.509Z,101838.50
